sensor_id;sensor_type;location;lat;lon;timestamp;temperature;humidity
8537;DHT22;4306;50.210;10.628;2024-01-07T00:00:43;3.90;99.90
8537;DHT22;4306;50.210;10.628;2024-01-07T00:03:12;4.00;99.90
8537;DHT22;4306;50.210;10.628;2024-01-07T00:05:39;4.00;99.90
8537;DHT22;4306;50.210;10.628;2024-01-07T00:08:06;4.00;99.90
8537;DHT22;4306;50.210;10.628;2024-01-07T00:10:33;4.00;99.90
8537;DHT22;4306;50.210;10.628;2024-01-07T00:13:00;4.00;99.90
8537;DHT22;4306;50.210;10.628;2024-01-07T00:15:27;4.00;99.90
8537;DHT22;4306;50.210;10.628;2024-01-07T00:17:54;3.90;99.90
8537;DHT22;4306;50.210;10.628;2024-01-07T00:20:22;3.90;99.90
8537;DHT22;4306;50.210;10.628;2024-01-07T00:22:49;4.00;99.90
8537;DHT22;4306;50.210;10.628;2024-01-07T00:25:16;3.90;99.90
8537;DHT22;4306;50.210;10.628;2024-01-07T00:27:44;3.90;99.90
8537;DHT22;4306;50.210;10.628;2024-01-07T00:30:12;3.90;99.90
8537;DHT22;4306;50.210;10.628;2024-01-07T00:32:39;3.80;99.90
8537;DHT22;4306;50.210;10.628;2024-01-07T00:35:06;3.80;99.90
8537;DHT22;4306;50.210;10.628;2024-01-07T00:37:35;3.90;99.90
8537;DHT22;4306;50.210;10.628;2024-01-07T00:40:04;3.80;99.90
8537;DHT22;4306;50.210;10.628;2024-01-07T00:42:32;3.80;99.90
8537;DHT22;4306;50.210;10.628;2024-01-07T00:44:59;3.80;99.90
8537;DHT22;4306;50.210;10.628;2024-01-07T00:47:26;3.80;99.90
8537;DHT22;4306;50.210;10.628;2024-01-07T00:49:53;3.80;99.90
8537;DHT22;4306;50.210;10.628;2024-01-07T00:52:19;3.80;99.90
8537;DHT22;4306;50.210;10.628;2024-01-07T00:54:48;3.80;99.90
8537;DHT22;4306;50.210;10.628;2024-01-07T00:57:15;3.80;99.90
8537;DHT22;4306;50.210;10.628;2024-01-07T00:59:42;3.80;99.90
8537;DHT22;4306;50.210;10.628;2024-01-07T01:02:09;3.60;99.90
8537;DHT22;4306;50.210;10.628;2024-01-07T01:04:38;3.70;99.90
8537;DHT22;4306;50.210;10.628;2024-01-07T01:07:06;3.70;99.90
8537;DHT22;4306;50.210;10.628;2024-01-07T01:09:33;3.70;99.90
8537;DHT22;4306;50.210;10.628;2024-01-07T01:12:02;3.80;99.90
8537;DHT22;4306;50.210;10.628;2024-01-07T01:14:29;3.80;99.90
8537;DHT22;4306;50.210;10.628;2024-01-07T01:16:56;3.70;99.90
8537;DHT22;4306;50.210;10.628;2024-01-07T01:19:24;3.70;99.90
8537;DHT22;4306;50.210;10.628;2024-01-07T01:21:51;3.60;99.90
8537;DHT22;4306;50.210;10.628;2024-01-07T01:24:18;3.60;99.90
8537;DHT22;4306;50.210;10.628;2024-01-07T01:26:45;3.60;99.90
8537;DHT22;4306;50.210;10.628;2024-01-07T01:29:13;3.60;99.90
8537;DHT22;4306;50.210;10.628;2024-01-07T01:31:40;3.50;99.90
8537;DHT22;4306;50.210;10.628;2024-01-07T01:34:08;3.50;99.90
8537;DHT22;4306;50.210;10.628;2024-01-07T01:36:35;3.40;99.90
8537;DHT22;4306;50.210;10.628;2024-01-07T01:39:02;3.50;99.90
8537;DHT22;4306;50.210;10.628;2024-01-07T01:41:29;3.30;99.90
8537;DHT22;4306;50.210;10.628;2024-01-07T01:43:57;3.30;99.90
8537;DHT22;4306;50.210;10.628;2024-01-07T01:46:26;3.20;99.90
8537;DHT22;4306;50.210;10.628;2024-01-07T01:48:56;3.30;99.90
8537;DHT22;4306;50.210;10.628;2024-01-07T01:51:24;3.20;99.90
8537;DHT22;4306;50.210;10.628;2024-01-07T01:53:51;3.10;99.90
8537;DHT22;4306;50.210;10.628;2024-01-07T01:56:19;3.00;99.90
8537;DHT22;4306;50.210;10.628;2024-01-07T01:58:46;3.10;99.90
8537;DHT22;4306;50.210;10.628;2024-01-07T02:01:14;3.10;99.90
8537;DHT22;4306;50.210;10.628;2024-01-07T02:03:42;3.00;99.90
8537;DHT22;4306;50.210;10.628;2024-01-07T02:06:09;3.10;99.90
8537;DHT22;4306;50.210;10.628;2024-01-07T02:08:37;3.10;99.90
8537;DHT22;4306;50.210;10.628;2024-01-07T02:11:15;3.10;99.90
8537;DHT22;4306;50.210;10.628;2024-01-07T02:13:43;3.10;99.90
8537;DHT22;4306;50.210;10.628;2024-01-07T02:16:11;3.00;99.90
8537;DHT22;4306;50.210;10.628;2024-01-07T02:18:38;3.00;99.90
8537;DHT22;4306;50.210;10.628;2024-01-07T02:21:09;3.00;99.90
8537;DHT22;4306;50.210;10.628;2024-01-07T02:23:37;2.90;99.90
8537;DHT22;4306;50.210;10.628;2024-01-07T02:26:06;3.00;99.90
8537;DHT22;4306;50.210;10.628;2024-01-07T02:28:33;2.90;99.90
8537;DHT22;4306;50.210;10.628;2024-01-07T02:31:00;2.90;99.90
8537;DHT22;4306;50.210;10.628;2024-01-07T02:33:27;2.90;99.90
8537;DHT22;4306;50.210;10.628;2024-01-07T02:35:54;2.90;99.90
8537;DHT22;4306;50.210;10.628;2024-01-07T02:38:21;2.80;99.90
8537;DHT22;4306;50.210;10.628;2024-01-07T02:40:48;2.80;99.90
8537;DHT22;4306;50.210;10.628;2024-01-07T02:43:17;2.90;99.90
8537;DHT22;4306;50.210;10.628;2024-01-07T02:45:44;2.90;99.90
8537;DHT22;4306;50.210;10.628;2024-01-07T02:48:11;2.80;99.90
8537;DHT22;4306;50.210;10.628;2024-01-07T02:50:38;2.80;99.90
8537;DHT22;4306;50.210;10.628;2024-01-07T02:53:05;2.70;99.90
8537;DHT22;4306;50.210;10.628;2024-01-07T02:55:33;2.70;99.90
8537;DHT22;4306;50.210;10.628;2024-01-07T02:58:00;2.70;99.90
8537;DHT22;4306;50.210;10.628;2024-01-07T03:00:29;2.60;99.90
8537;DHT22;4306;50.210;10.628;2024-01-07T03:02:56;2.60;99.90
8537;DHT22;4306;50.210;10.628;2024-01-07T03:05:23;2.60;99.90
8537;DHT22;4306;50.210;10.628;2024-01-07T03:07:50;2.60;99.90
8537;DHT22;4306;50.210;10.628;2024-01-07T03:10:17;2.60;99.90
8537;DHT22;4306;50.210;10.628;2024-01-07T03:12:44;2.60;99.90
8537;DHT22;4306;50.210;10.628;2024-01-07T03:15:11;2.50;99.90
8537;DHT22;4306;50.210;10.628;2024-01-07T03:17:39;2.40;99.90
8537;DHT22;4306;50.210;10.628;2024-01-07T03:20:07;2.40;99.90
8537;DHT22;4306;50.210;10.628;2024-01-07T03:22:35;2.40;99.90
8537;DHT22;4306;50.210;10.628;2024-01-07T03:25:02;2.40;99.90
8537;DHT22;4306;50.210;10.628;2024-01-07T03:27:30;2.40;99.90
8537;DHT22;4306;50.210;10.628;2024-01-07T03:29:57;2.40;99.90
8537;DHT22;4306;50.210;10.628;2024-01-07T03:32:24;2.30;99.90
8537;DHT22;4306;50.210;10.628;2024-01-07T03:34:52;2.30;99.90
8537;DHT22;4306;50.210;10.628;2024-01-07T03:37:19;2.30;99.90
8537;DHT22;4306;50.210;10.628;2024-01-07T03:39:47;2.30;99.90
8537;DHT22;4306;50.210;10.628;2024-01-07T03:42:14;2.20;99.90
8537;DHT22;4306;50.210;10.628;2024-01-07T03:44:41;2.20;99.90
8537;DHT22;4306;50.210;10.628;2024-01-07T03:47:08;2.20;99.90
8537;DHT22;4306;50.210;10.628;2024-01-07T03:49:36;2.20;99.90
8537;DHT22;4306;50.210;10.628;2024-01-07T03:52:06;2.20;99.90
8537;DHT22;4306;50.210;10.628;2024-01-07T03:54:33;2.10;99.90
8537;DHT22;4306;50.210;10.628;2024-01-07T03:57:00;2.10;99.90
8537;DHT22;4306;50.210;10.628;2024-01-07T03:59:27;2.10;99.90
8537;DHT22;4306;50.210;10.628;2024-01-07T04:01:56;2.00;99.90
8537;DHT22;4306;50.210;10.628;2024-01-07T04:04:23;2.10;99.90
8537;DHT22;4306;50.210;10.628;2024-01-07T04:06:50;2.00;99.90
8537;DHT22;4306;50.210;10.628;2024-01-07T04:09:18;2.00;99.90
8537;DHT22;4306;50.210;10.628;2024-01-07T04:11:45;2.00;99.90
8537;DHT22;4306;50.210;10.628;2024-01-07T04:14:14;1.90;99.90
8537;DHT22;4306;50.210;10.628;2024-01-07T04:16:42;1.90;99.90
8537;DHT22;4306;50.210;10.628;2024-01-07T04:19:09;1.90;99.90
8537;DHT22;4306;50.210;10.628;2024-01-07T04:21:36;1.90;99.90
8537;DHT22;4306;50.210;10.628;2024-01-07T04:24:03;1.90;99.90
8537;DHT22;4306;50.210;10.628;2024-01-07T04:26:32;1.50;99.90
8537;DHT22;4306;50.210;10.628;2024-01-07T04:28:59;1.80;99.90
8537;DHT22;4306;50.210;10.628;2024-01-07T04:31:26;1.80;99.90
8537;DHT22;4306;50.210;10.628;2024-01-07T04:33:53;1.60;99.90
8537;DHT22;4306;50.210;10.628;2024-01-07T04:36:20;1.70;99.90
8537;DHT22;4306;50.210;10.628;2024-01-07T04:38:47;1.50;99.90
8537;DHT22;4306;50.210;10.628;2024-01-07T04:41:14;1.60;99.90
8537;DHT22;4306;50.210;10.628;2024-01-07T04:43:44;1.50;99.90
8537;DHT22;4306;50.210;10.628;2024-01-07T04:46:11;1.40;99.90
8537;DHT22;4306;50.210;10.628;2024-01-07T04:48:38;1.40;99.90
8537;DHT22;4306;50.210;10.628;2024-01-07T04:51:06;1.40;99.90
8537;DHT22;4306;50.210;10.628;2024-01-07T04:53:34;1.40;99.90
8537;DHT22;4306;50.210;10.628;2024-01-07T04:56:02;1.40;99.90
8537;DHT22;4306;50.210;10.628;2024-01-07T04:58:30;1.40;99.90
8537;DHT22;4306;50.210;10.628;2024-01-07T05:00:58;1.30;99.90
8537;DHT22;4306;50.210;10.628;2024-01-07T05:03:25;1.30;99.90
8537;DHT22;4306;50.210;10.628;2024-01-07T05:05:52;1.30;99.90
8537;DHT22;4306;50.210;10.628;2024-01-07T05:08:20;1.50;99.90
8537;DHT22;4306;50.210;10.628;2024-01-07T05:10:47;1.30;99.90
8537;DHT22;4306;50.210;10.628;2024-01-07T05:13:14;1.30;99.90
8537;DHT22;4306;50.210;10.628;2024-01-07T05:15:41;1.30;99.90
8537;DHT22;4306;50.210;10.628;2024-01-07T05:18:09;1.30;99.90
8537;DHT22;4306;50.210;10.628;2024-01-07T05:20:37;1.20;99.90
8537;DHT22;4306;50.210;10.628;2024-01-07T05:23:04;1.30;99.90
8537;DHT22;4306;50.210;10.628;2024-01-07T05:25:31;1.30;99.90
8537;DHT22;4306;50.210;10.628;2024-01-07T05:27:58;1.30;99.90
8537;DHT22;4306;50.210;10.628;2024-01-07T05:30:25;1.30;99.90
8537;DHT22;4306;50.210;10.628;2024-01-07T05:32:52;1.30;99.90
8537;DHT22;4306;50.210;10.628;2024-01-07T05:35:20;1.20;99.90
8537;DHT22;4306;50.210;10.628;2024-01-07T05:37:47;1.20;99.90
8537;DHT22;4306;50.210;10.628;2024-01-07T05:40:14;1.20;99.90
8537;DHT22;4306;50.210;10.628;2024-01-07T05:42:41;1.20;99.90
8537;DHT22;4306;50.210;10.628;2024-01-07T05:45:09;1.20;99.90
8537;DHT22;4306;50.210;10.628;2024-01-07T05:47:36;1.30;99.90
8537;DHT22;4306;50.210;10.628;2024-01-07T05:50:03;1.30;99.90
8537;DHT22;4306;50.210;10.628;2024-01-07T05:52:32;1.30;99.90
8537;DHT22;4306;50.210;10.628;2024-01-07T05:54:59;1.30;99.90
8537;DHT22;4306;50.210;10.628;2024-01-07T05:57:26;1.30;99.90
8537;DHT22;4306;50.210;10.628;2024-01-07T05:59:53;1.30;99.90
8537;DHT22;4306;50.210;10.628;2024-01-07T06:02:20;1.30;99.90
8537;DHT22;4306;50.210;10.628;2024-01-07T06:04:48;1.20;99.90
8537;DHT22;4306;50.210;10.628;2024-01-07T06:07:15;1.30;99.90
8537;DHT22;4306;50.210;10.628;2024-01-07T06:09:43;1.30;99.90
8537;DHT22;4306;50.210;10.628;2024-01-07T06:12:10;1.20;99.90
8537;DHT22;4306;50.210;10.628;2024-01-07T06:14:38;1.30;99.90
8537;DHT22;4306;50.210;10.628;2024-01-07T06:17:05;1.30;99.90
8537;DHT22;4306;50.210;10.628;2024-01-07T06:19:32;1.30;99.90
8537;DHT22;4306;50.210;10.628;2024-01-07T06:21:59;1.30;99.90
8537;DHT22;4306;50.210;10.628;2024-01-07T06:24:26;1.20;99.90
8537;DHT22;4306;50.210;10.628;2024-01-07T06:26:55;1.20;99.90
8537;DHT22;4306;50.210;10.628;2024-01-07T06:29:22;1.10;99.90
8537;DHT22;4306;50.210;10.628;2024-01-07T06:31:49;1.10;99.90
8537;DHT22;4306;50.210;10.628;2024-01-07T06:34:16;1.10;99.90
8537;DHT22;4306;50.210;10.628;2024-01-07T06:36:43;1.00;99.90
8537;DHT22;4306;50.210;10.628;2024-01-07T06:39:10;1.00;99.90
8537;DHT22;4306;50.210;10.628;2024-01-07T06:41:37;1.00;99.90
8537;DHT22;4306;50.210;10.628;2024-01-07T06:44:05;1.00;99.90
8537;DHT22;4306;50.210;10.628;2024-01-07T06:46:32;0.90;99.90
8537;DHT22;4306;50.210;10.628;2024-01-07T06:49:00;0.90;99.90
8537;DHT22;4306;50.210;10.628;2024-01-07T06:51:28;0.90;99.90
8537;DHT22;4306;50.210;10.628;2024-01-07T06:53:55;0.90;99.90
8537;DHT22;4306;50.210;10.628;2024-01-07T06:56:22;0.80;99.90
8537;DHT22;4306;50.210;10.628;2024-01-07T06:58:50;0.80;99.90
8537;DHT22;4306;50.210;10.628;2024-01-07T07:01:19;0.80;99.90
8537;DHT22;4306;50.210;10.628;2024-01-07T07:03:48;0.80;99.90
8537;DHT22;4306;50.210;10.628;2024-01-07T07:06:15;1.00;99.90
8537;DHT22;4306;50.210;10.628;2024-01-07T07:08:42;0.80;99.90
8537;DHT22;4306;50.210;10.628;2024-01-07T07:11:09;0.80;99.90
8537;DHT22;4306;50.210;10.628;2024-01-07T07:13:37;0.70;99.90
8537;DHT22;4306;50.210;10.628;2024-01-07T07:16:05;0.70;99.90
8537;DHT22;4306;50.210;10.628;2024-01-07T07:18:35;0.50;99.90
8537;DHT22;4306;50.210;10.628;2024-01-07T07:21:02;0.50;99.90
8537;DHT22;4306;50.210;10.628;2024-01-07T07:23:29;0.50;99.90
8537;DHT22;4306;50.210;10.628;2024-01-07T07:25:56;0.50;99.90
8537;DHT22;4306;50.210;10.628;2024-01-07T07:28:23;0.50;99.90
8537;DHT22;4306;50.210;10.628;2024-01-07T07:30:50;0.40;99.90
8537;DHT22;4306;50.210;10.628;2024-01-07T07:33:17;0.40;99.90
8537;DHT22;4306;50.210;10.628;2024-01-07T07:35:45;0.40;99.90
8537;DHT22;4306;50.210;10.628;2024-01-07T07:38:12;0.50;99.90
8537;DHT22;4306;50.210;10.628;2024-01-07T07:40:40;0.50;99.90
8537;DHT22;4306;50.210;10.628;2024-01-07T07:43:08;0.30;99.90
8537;DHT22;4306;50.210;10.628;2024-01-07T07:45:35;0.20;99.90
8537;DHT22;4306;50.210;10.628;2024-01-07T07:48:02;0.20;99.90
8537;DHT22;4306;50.210;10.628;2024-01-07T07:50:30;0.20;99.90
8537;DHT22;4306;50.210;10.628;2024-01-07T07:52:59;0.30;99.90
8537;DHT22;4306;50.210;10.628;2024-01-07T07:55:26;0.30;99.90
8537;DHT22;4306;50.210;10.628;2024-01-07T07:57:54;0.30;99.90
8537;DHT22;4306;50.210;10.628;2024-01-07T08:00:21;0.30;99.90
8537;DHT22;4306;50.210;10.628;2024-01-07T08:02:48;0.30;99.90
8537;DHT22;4306;50.210;10.628;2024-01-07T08:05:15;0.30;99.90
8537;DHT22;4306;50.210;10.628;2024-01-07T08:07:42;0.30;99.90
8537;DHT22;4306;50.210;10.628;2024-01-07T08:10:11;0.30;99.90
8537;DHT22;4306;50.210;10.628;2024-01-07T08:12:38;0.30;99.90
8537;DHT22;4306;50.210;10.628;2024-01-07T08:15:06;0.10;99.90
8537;DHT22;4306;50.210;10.628;2024-01-07T08:17:34;0.20;99.90
8537;DHT22;4306;50.210;10.628;2024-01-07T08:20:01;0.40;99.90
8537;DHT22;4306;50.210;10.628;2024-01-07T08:22:29;0.20;99.90
8537;DHT22;4306;50.210;10.628;2024-01-07T08:24:56;0.20;99.90
8537;DHT22;4306;50.210;10.628;2024-01-07T08:27:24;0.10;99.90
8537;DHT22;4306;50.210;10.628;2024-01-07T08:29:52;0.20;99.90
8537;DHT22;4306;50.210;10.628;2024-01-07T08:32:19;0.20;99.90
8537;DHT22;4306;50.210;10.628;2024-01-07T08:34:48;0.20;99.90
8537;DHT22;4306;50.210;10.628;2024-01-07T08:37:15;0.20;99.90
8537;DHT22;4306;50.210;10.628;2024-01-07T08:39:42;0.00;99.90
8537;DHT22;4306;50.210;10.628;2024-01-07T08:42:08;0.10;99.90
8537;DHT22;4306;50.210;10.628;2024-01-07T08:44:36;0.10;99.90
8537;DHT22;4306;50.210;10.628;2024-01-07T08:47:05;0.10;99.90
8537;DHT22;4306;50.210;10.628;2024-01-07T08:49:32;0.10;99.90
8537;DHT22;4306;50.210;10.628;2024-01-07T08:51:59;0.00;99.90
8537;DHT22;4306;50.210;10.628;2024-01-07T08:54:26;-0.10;99.90
8537;DHT22;4306;50.210;10.628;2024-01-07T08:56:53;0.00;99.90
8537;DHT22;4306;50.210;10.628;2024-01-07T08:59:20;0.20;99.90
8537;DHT22;4306;50.210;10.628;2024-01-07T09:01:49;-0.10;99.90
8537;DHT22;4306;50.210;10.628;2024-01-07T09:04:16;0.00;99.90
8537;DHT22;4306;50.210;10.628;2024-01-07T09:06:43;0.00;99.90
8537;DHT22;4306;50.210;10.628;2024-01-07T09:09:10;-0.10;99.90
8537;DHT22;4306;50.210;10.628;2024-01-07T09:11:38;-0.10;99.90
8537;DHT22;4306;50.210;10.628;2024-01-07T09:14:05;-0.10;99.90
8537;DHT22;4306;50.210;10.628;2024-01-07T09:16:33;-0.10;99.90
8537;DHT22;4306;50.210;10.628;2024-01-07T09:19:02;-0.10;99.90
8537;DHT22;4306;50.210;10.628;2024-01-07T09:21:29;-0.20;99.90
8537;DHT22;4306;50.210;10.628;2024-01-07T09:23:56;-0.20;99.90
8537;DHT22;4306;50.210;10.628;2024-01-07T09:26:23;-0.40;99.90
8537;DHT22;4306;50.210;10.628;2024-01-07T09:28:50;-0.30;99.90
8537;DHT22;4306;50.210;10.628;2024-01-07T09:31:17;-0.40;99.90
8537;DHT22;4306;50.210;10.628;2024-01-07T09:33:44;-0.30;99.90
8537;DHT22;4306;50.210;10.628;2024-01-07T09:36:12;-0.30;99.90
8537;DHT22;4306;50.210;10.628;2024-01-07T09:38:40;-0.40;99.90
8537;DHT22;4306;50.210;10.628;2024-01-07T09:41:07;-0.50;99.90
8537;DHT22;4306;50.210;10.628;2024-01-07T09:43:34;-0.40;99.90
8537;DHT22;4306;50.210;10.628;2024-01-07T09:46:02;-0.30;99.90
8537;DHT22;4306;50.210;10.628;2024-01-07T09:48:29;-0.30;99.90
8537;DHT22;4306;50.210;10.628;2024-01-07T09:50:57;-0.40;99.90
8537;DHT22;4306;50.210;10.628;2024-01-07T09:53:31;-0.40;99.90
8537;DHT22;4306;50.210;10.628;2024-01-07T09:56:07;-0.50;99.90
8537;DHT22;4306;50.210;10.628;2024-01-07T09:58:40;-0.50;99.90
8537;DHT22;4306;50.210;10.628;2024-01-07T10:01:08;-0.50;99.90
8537;DHT22;4306;50.210;10.628;2024-01-07T10:03:36;-0.40;99.90
8537;DHT22;4306;50.210;10.628;2024-01-07T10:06:03;-0.50;99.90
8537;DHT22;4306;50.210;10.628;2024-01-07T10:08:32;-0.50;99.90
8537;DHT22;4306;50.210;10.628;2024-01-07T10:10:59;-0.50;99.90
8537;DHT22;4306;50.210;10.628;2024-01-07T10:13:27;-0.40;99.90
8537;DHT22;4306;50.210;10.628;2024-01-07T10:15:54;-0.40;99.90
8537;DHT22;4306;50.210;10.628;2024-01-07T10:18:21;-0.40;99.90
8537;DHT22;4306;50.210;10.628;2024-01-07T10:20:48;-0.50;99.90
8537;DHT22;4306;50.210;10.628;2024-01-07T10:23:19;-0.60;99.90
8537;DHT22;4306;50.210;10.628;2024-01-07T10:25:47;-0.50;99.90
8537;DHT22;4306;50.210;10.628;2024-01-07T10:28:14;-0.50;99.90
8537;DHT22;4306;50.210;10.628;2024-01-07T10:30:49;-0.60;99.90
8537;DHT22;4306;50.210;10.628;2024-01-07T10:33:17;-0.60;99.90
8537;DHT22;4306;50.210;10.628;2024-01-07T10:35:50;-0.60;99.90
8537;DHT22;4306;50.210;10.628;2024-01-07T10:38:20;-0.70;99.90
8537;DHT22;4306;50.210;10.628;2024-01-07T10:40:50;-0.70;99.90
8537;DHT22;4306;50.210;10.628;2024-01-07T10:43:19;-0.60;99.90
8537;DHT22;4306;50.210;10.628;2024-01-07T10:45:47;-0.60;99.90
8537;DHT22;4306;50.210;10.628;2024-01-07T10:48:17;-0.60;99.90
8537;DHT22;4306;50.210;10.628;2024-01-07T10:50:45;-0.50;99.90
8537;DHT22;4306;50.210;10.628;2024-01-07T10:53:18;-0.40;99.90
8537;DHT22;4306;50.210;10.628;2024-01-07T10:55:54;-0.50;99.90
8537;DHT22;4306;50.210;10.628;2024-01-07T10:58:27;-0.60;99.90
8537;DHT22;4306;50.210;10.628;2024-01-07T11:00:54;-0.60;99.90
8537;DHT22;4306;50.210;10.628;2024-01-07T11:03:27;-0.60;99.90
8537;DHT22;4306;50.210;10.628;2024-01-07T11:06:03;-0.50;99.90
8537;DHT22;4306;50.210;10.628;2024-01-07T11:08:36;-0.40;99.90
8537;DHT22;4306;50.210;10.628;2024-01-07T11:11:14;-0.50;99.90
8537;DHT22;4306;50.210;10.628;2024-01-07T11:13:43;-0.50;99.90
8537;DHT22;4306;50.210;10.628;2024-01-07T11:16:10;-0.60;99.90
8537;DHT22;4306;50.210;10.628;2024-01-07T11:18:45;-0.50;99.90
8537;DHT22;4306;50.210;10.628;2024-01-07T11:21:20;-0.30;99.90
8537;DHT22;4306;50.210;10.628;2024-01-07T11:23:50;-0.50;99.90
8537;DHT22;4306;50.210;10.628;2024-01-07T11:26:20;-0.60;99.90
8537;DHT22;4306;50.210;10.628;2024-01-07T11:28:49;-0.50;99.90
8537;DHT22;4306;50.210;10.628;2024-01-07T11:31:19;-0.70;99.90
8537;DHT22;4306;50.210;10.628;2024-01-07T11:33:48;-0.60;99.90
8537;DHT22;4306;50.210;10.628;2024-01-07T11:36:17;-0.70;99.90
8537;DHT22;4306;50.210;10.628;2024-01-07T11:38:45;-0.60;99.90
8537;DHT22;4306;50.210;10.628;2024-01-07T11:41:14;-0.60;99.90
8537;DHT22;4306;50.210;10.628;2024-01-07T11:43:54;-0.70;99.90
8537;DHT22;4306;50.210;10.628;2024-01-07T11:46:22;-0.80;99.90
8537;DHT22;4306;50.210;10.628;2024-01-07T11:48:50;-0.80;99.90
8537;DHT22;4306;50.210;10.628;2024-01-07T11:51:19;-0.90;99.90
8537;DHT22;4306;50.210;10.628;2024-01-07T11:53:46;-1.00;99.90
8537;DHT22;4306;50.210;10.628;2024-01-07T11:56:14;-1.00;99.90
8537;DHT22;4306;50.210;10.628;2024-01-07T11:58:41;-0.80;99.90
8537;DHT22;4306;50.210;10.628;2024-01-07T12:01:09;-0.90;99.90
8537;DHT22;4306;50.210;10.628;2024-01-07T12:03:36;-0.90;99.90
8537;DHT22;4306;50.210;10.628;2024-01-07T12:06:04;-1.00;99.90
8537;DHT22;4306;50.210;10.628;2024-01-07T12:08:31;-0.90;99.90
8537;DHT22;4306;50.210;10.628;2024-01-07T12:10:59;-0.90;99.90
8537;DHT22;4306;50.210;10.628;2024-01-07T12:13:27;-1.00;99.90
8537;DHT22;4306;50.210;10.628;2024-01-07T12:15:54;-1.00;99.90
8537;DHT22;4306;50.210;10.628;2024-01-07T12:18:23;-1.10;99.90
8537;DHT22;4306;50.210;10.628;2024-01-07T12:20:58;-1.20;99.90
8537;DHT22;4306;50.210;10.628;2024-01-07T12:23:26;-1.00;99.90
8537;DHT22;4306;50.210;10.628;2024-01-07T12:25:53;-1.20;99.90
8537;DHT22;4306;50.210;10.628;2024-01-07T12:28:21;-1.20;99.90
8537;DHT22;4306;50.210;10.628;2024-01-07T12:30:48;-1.30;99.90
8537;DHT22;4306;50.210;10.628;2024-01-07T12:33:17;-1.20;99.90
8537;DHT22;4306;50.210;10.628;2024-01-07T12:35:47;-1.10;99.90
8537;DHT22;4306;50.210;10.628;2024-01-07T12:38:14;-1.20;99.90
8537;DHT22;4306;50.210;10.628;2024-01-07T12:40:42;-1.30;99.90
8537;DHT22;4306;50.210;10.628;2024-01-07T12:43:09;-1.20;99.90
8537;DHT22;4306;50.210;10.628;2024-01-07T12:45:36;-1.40;99.90
8537;DHT22;4306;50.210;10.628;2024-01-07T12:48:03;-1.30;99.90
8537;DHT22;4306;50.210;10.628;2024-01-07T12:50:30;-1.40;99.90
8537;DHT22;4306;50.210;10.628;2024-01-07T12:52:59;-1.30;99.90
8537;DHT22;4306;50.210;10.628;2024-01-07T12:55:27;-1.40;99.90
8537;DHT22;4306;50.210;10.628;2024-01-07T12:57:55;-1.20;99.90
8537;DHT22;4306;50.210;10.628;2024-01-07T13:00:22;-1.40;99.90
8537;DHT22;4306;50.210;10.628;2024-01-07T13:02:49;-1.30;99.90
8537;DHT22;4306;50.210;10.628;2024-01-07T13:05:16;-1.40;99.90
8537;DHT22;4306;50.210;10.628;2024-01-07T13:07:44;-1.50;99.90
8537;DHT22;4306;50.210;10.628;2024-01-07T13:10:13;-1.50;99.90
8537;DHT22;4306;50.210;10.628;2024-01-07T13:12:40;-1.40;99.90
8537;DHT22;4306;50.210;10.628;2024-01-07T13:15:07;-1.50;99.90
8537;DHT22;4306;50.210;10.628;2024-01-07T13:17:34;-1.60;99.90
8537;DHT22;4306;50.210;10.628;2024-01-07T13:20:01;-1.40;99.90
8537;DHT22;4306;50.210;10.628;2024-01-07T13:22:32;-1.40;99.90
8537;DHT22;4306;50.210;10.628;2024-01-07T13:25:00;-1.60;99.90
8537;DHT22;4306;50.210;10.628;2024-01-07T13:27:28;-1.50;99.90
8537;DHT22;4306;50.210;10.628;2024-01-07T13:29:55;-1.50;99.90
8537;DHT22;4306;50.210;10.628;2024-01-07T13:32:22;-1.50;99.90
8537;DHT22;4306;50.210;10.628;2024-01-07T13:34:49;-1.60;99.90
8537;DHT22;4306;50.210;10.628;2024-01-07T13:37:16;-1.60;99.90
8537;DHT22;4306;50.210;10.628;2024-01-07T13:39:43;-1.50;99.90
8537;DHT22;4306;50.210;10.628;2024-01-07T13:42:10;-1.50;99.90
8537;DHT22;4306;50.210;10.628;2024-01-07T13:44:39;-1.60;99.90
8537;DHT22;4306;50.210;10.628;2024-01-07T13:47:12;-1.80;99.90
8537;DHT22;4306;50.210;10.628;2024-01-07T13:49:39;-1.90;99.90
8537;DHT22;4306;50.210;10.628;2024-01-07T13:52:06;-1.70;99.90
8537;DHT22;4306;50.210;10.628;2024-01-07T13:54:33;-1.70;99.90
8537;DHT22;4306;50.210;10.628;2024-01-07T13:57:00;-1.80;99.90
8537;DHT22;4306;50.210;10.628;2024-01-07T13:59:28;-1.80;99.90
8537;DHT22;4306;50.210;10.628;2024-01-07T14:01:56;-1.90;99.90
8537;DHT22;4306;50.210;10.628;2024-01-07T14:04:25;-1.70;99.90
8537;DHT22;4306;50.210;10.628;2024-01-07T14:06:54;-1.90;99.90
8537;DHT22;4306;50.210;10.628;2024-01-07T14:09:21;-2.10;99.90
8537;DHT22;4306;50.210;10.628;2024-01-07T14:11:48;-2.10;99.90
8537;DHT22;4306;50.210;10.628;2024-01-07T14:14:15;-2.10;99.90
8537;DHT22;4306;50.210;10.628;2024-01-07T14:16:44;-2.20;99.90
8537;DHT22;4306;50.210;10.628;2024-01-07T14:19:13;-2.20;99.90
8537;DHT22;4306;50.210;10.628;2024-01-07T14:21:41;-2.30;99.90
8537;DHT22;4306;50.210;10.628;2024-01-07T14:24:08;-2.40;99.90
8537;DHT22;4306;50.210;10.628;2024-01-07T14:26:35;-2.30;99.90
8537;DHT22;4306;50.210;10.628;2024-01-07T14:29:03;-2.30;99.90
8537;DHT22;4306;50.210;10.628;2024-01-07T14:31:31;-2.40;99.90
8537;DHT22;4306;50.210;10.628;2024-01-07T14:33:58;-2.50;99.90
8537;DHT22;4306;50.210;10.628;2024-01-07T14:36:26;-2.50;99.90
8537;DHT22;4306;50.210;10.628;2024-01-07T14:38:53;-2.70;99.90
8537;DHT22;4306;50.210;10.628;2024-01-07T14:41:20;-2.50;99.90
8537;DHT22;4306;50.210;10.628;2024-01-07T14:43:47;-2.40;99.90
8537;DHT22;4306;50.210;10.628;2024-01-07T14:46:14;-2.60;99.90
8537;DHT22;4306;50.210;10.628;2024-01-07T14:48:41;-2.50;99.90
8537;DHT22;4306;50.210;10.628;2024-01-07T14:51:08;-2.50;99.90
8537;DHT22;4306;50.210;10.628;2024-01-07T14:53:37;-2.60;99.90
8537;DHT22;4306;50.210;10.628;2024-01-07T14:56:04;-2.60;99.90
8537;DHT22;4306;50.210;10.628;2024-01-07T14:58:31;-2.70;99.90
8537;DHT22;4306;50.210;10.628;2024-01-07T15:00:59;-2.70;99.90
8537;DHT22;4306;50.210;10.628;2024-01-07T15:03:27;-2.70;99.90
8537;DHT22;4306;50.210;10.628;2024-01-07T15:05:55;-2.80;99.90
8537;DHT22;4306;50.210;10.628;2024-01-07T15:08:23;-2.70;99.90
8537;DHT22;4306;50.210;10.628;2024-01-07T15:10:52;-2.80;99.90
8537;DHT22;4306;50.210;10.628;2024-01-07T15:13:19;-2.90;99.90
8537;DHT22;4306;50.210;10.628;2024-01-07T15:15:47;-2.80;99.90
8537;DHT22;4306;50.210;10.628;2024-01-07T15:18:15;-2.80;99.90
8537;DHT22;4306;50.210;10.628;2024-01-07T15:20:42;-2.90;99.90
8537;DHT22;4306;50.210;10.628;2024-01-07T15:23:09;-2.90;99.90
8537;DHT22;4306;50.210;10.628;2024-01-07T15:25:36;-2.90;99.90
8537;DHT22;4306;50.210;10.628;2024-01-07T15:28:05;-2.90;99.90
8537;DHT22;4306;50.210;10.628;2024-01-07T15:30:32;-3.00;99.90
8537;DHT22;4306;50.210;10.628;2024-01-07T15:32:59;-2.90;99.90
8537;DHT22;4306;50.210;10.628;2024-01-07T15:35:26;-3.00;99.90
8537;DHT22;4306;50.210;10.628;2024-01-07T15:37:53;-3.00;99.90
8537;DHT22;4306;50.210;10.628;2024-01-07T15:40:22;-2.90;99.90
8537;DHT22;4306;50.210;10.628;2024-01-07T15:42:50;-2.90;99.90
8537;DHT22;4306;50.210;10.628;2024-01-07T15:45:18;-2.90;99.90
8537;DHT22;4306;50.210;10.628;2024-01-07T15:47:45;-3.00;99.90
8537;DHT22;4306;50.210;10.628;2024-01-07T15:50:14;-2.90;99.90
8537;DHT22;4306;50.210;10.628;2024-01-07T15:52:42;-2.90;99.90
8537;DHT22;4306;50.210;10.628;2024-01-07T15:55:12;-2.90;99.90
8537;DHT22;4306;50.210;10.628;2024-01-07T15:57:40;-3.00;99.90